createdAt,value
2023-02-11T00:01:28.485Z,30.00
2023-02-11T00:06:35.446Z,25.77
2023-02-11T00:11:43.467Z,29.48
2023-02-11T00:16:48.982Z,29.13
2023-02-11T00:21:54.411Z,27.33
2023-02-11T00:27:02.662Z,25.33
2023-02-11T00:32:09.097Z,24.88
2023-02-11T00:37:14.531Z,26.70
2023-02-11T00:42:23.170Z,25.80
2023-02-11T00:47:31.218Z,25.08
2023-02-11T00:52:38.439Z,30.33
2023-02-11T00:57:46.525Z,37.35
2023-02-11T01:02:54.593Z,34.22
2023-02-11T01:08:01.676Z,34.97
2023-02-11T01:13:10.262Z,57.95
2023-02-11T01:18:15.584Z,31.60
2023-02-11T01:23:20.993Z,28.55
2023-02-11T01:28:33.459Z,36.20
2023-02-11T01:33:38.955Z,35.67
2023-02-11T01:38:45.658Z,29.08
2023-02-11T01:43:53.937Z,32.47
2023-02-11T01:49:02.612Z,31.73
2023-02-11T01:54:24.495Z,30.50
2023-02-11T01:59:37.307Z,28.17
2023-02-11T02:04:48.089Z,28.35
2023-02-11T02:10:01.614Z,28.27
2023-02-11T02:15:29.433Z,28.35
2023-02-11T02:21:17.228Z,27.98
2023-02-11T02:26:45.383Z,25.37
2023-02-11T02:32:18.662Z,27.73
2023-02-11T02:37:30.398Z,23.90
2023-02-11T02:42:36.538Z,29.02
2023-02-11T02:47:44.645Z,26.80
2023-02-11T02:53:00.259Z,23.70
2023-02-11T02:58:28.109Z,29.35
2023-02-11T03:03:45.879Z,25.13
2023-02-11T03:08:57.997Z,25.73
2023-02-11T03:14:05.886Z,25.35
2023-02-11T03:19:17.095Z,25.10
2023-02-11T03:24:27.177Z,23.35
2023-02-11T03:29:37.737Z,28.37
2023-02-11T03:34:51.430Z,25.00
2023-02-11T03:40:00.165Z,23.90
2023-02-11T03:45:10.312Z,23.27
2023-02-11T03:50:19.962Z,20.27
2023-02-11T03:55:27.468Z,21.60
2023-02-11T04:00:33.969Z,21.67
2023-02-11T04:05:42.705Z,23.10
2023-02-11T04:10:48.122Z,26.03
2023-02-11T04:15:54.002Z,22.08
2023-02-11T04:21:02.473Z,27.30
2023-02-11T04:26:08.165Z,24.17
2023-02-11T04:31:13.567Z,26.33
2023-02-11T04:36:21.442Z,22.27
2023-02-11T04:41:27.027Z,28.77
2023-02-11T04:46:32.398Z,24.07
2023-02-11T04:51:40.274Z,25.10
2023-02-11T04:56:45.694Z,24.05
2023-02-11T05:01:51.074Z,26.47
2023-02-11T05:06:59.048Z,29.98
2023-02-11T05:12:04.482Z,30.43
2023-02-11T05:17:11.722Z,28.90
2023-02-11T05:22:21.383Z,30.30
2023-02-11T05:27:29.723Z,30.23
2023-02-11T05:32:35.090Z,25.38
2023-02-11T05:37:43.188Z,33.67
2023-02-11T05:42:48.681Z,34.53
2023-02-11T05:47:54.084Z,34.75
2023-02-11T05:53:02.008Z,32.30
2023-02-11T05:58:09.087Z,29.15
2023-02-11T06:03:15.647Z,28.27
2023-02-11T06:08:23.701Z,26.23
2023-02-11T06:13:29.062Z,29.52
2023-02-11T06:18:34.965Z,27.23
2023-02-11T06:23:43.644Z,29.20
2023-02-11T06:28:49.088Z,29.97
2023-02-11T06:33:55.102Z,30.85
2023-02-11T06:39:03.067Z,27.90
2023-02-11T06:44:08.974Z,30.97
2023-02-11T06:49:14.457Z,28.60
2023-02-11T06:54:22.512Z,28.43
2023-02-11T06:59:28.205Z,35.40
2023-02-11T07:04:33.618Z,30.10
2023-02-11T07:09:41.571Z,30.83
2023-02-11T07:14:47.365Z,28.23
2023-02-11T07:19:52.700Z,29.43
2023-02-11T07:25:00.631Z,27.40
2023-02-11T07:30:07.498Z,31.92
2023-02-11T07:35:12.873Z,32.70
2023-02-11T07:40:21.061Z,32.75
2023-02-11T07:45:26.425Z,33.23
2023-02-11T07:50:31.770Z,33.35
2023-02-11T07:55:39.798Z,31.35
2023-02-11T08:00:45.859Z,31.23
2023-02-11T08:05:51.756Z,34.83
2023-02-11T08:11:00.814Z,35.57
2023-02-11T08:16:07.858Z,32.38
2023-02-11T08:21:13.926Z,38.05
2023-02-11T08:26:24.983Z,32.97
2023-02-11T08:31:33.389Z,34.25
2023-02-11T08:36:40.600Z,34.10
2023-02-11T08:41:49.513Z,39.72
2023-02-11T08:46:56.821Z,38.45
2023-02-11T08:52:04.217Z,36.97
2023-02-11T08:57:12.142Z,36.28
2023-02-11T09:02:18.080Z,39.30
2023-02-11T09:07:25.052Z,33.92
2023-02-11T09:12:33.164Z,36.40
2023-02-11T09:17:38.552Z,36.90
2023-02-11T09:22:43.799Z,34.58
2023-02-11T09:27:52.432Z,41.13
2023-02-11T09:32:58.133Z,43.05
2023-02-11T09:38:03.980Z,36.03
2023-02-11T09:43:17.621Z,37.17
2023-02-11T09:48:24.832Z,44.90
2023-02-11T09:53:31.643Z,44.60
2023-02-11T09:58:42.813Z,41.63
2023-02-11T10:04:00.043Z,41.40
2023-02-11T10:09:25.371Z,50.10
2023-02-11T10:15:00.621Z,43.20
2023-02-11T10:20:23.702Z,36.27
2023-02-11T10:25:32.510Z,47.17
2023-02-11T10:30:45.449Z,44.25
2023-02-11T10:35:51.552Z,44.23
2023-02-11T10:41:00.268Z,46.55
2023-02-11T10:46:08.963Z,43.87
2023-02-11T10:51:23.778Z,41.50
2023-02-11T10:56:30.933Z,42.13
2023-02-11T11:01:51.475Z,15.00
2023-02-11T11:06:56.968Z,42.40
2023-02-11T11:12:02.259Z,39.63
2023-02-11T11:17:21.331Z,45.95
2023-02-11T11:22:26.728Z,48.85
2023-02-11T11:27:32.422Z,40.37
2023-02-11T11:32:40.292Z,44.42
2023-02-11T11:37:46.192Z,42.90
2023-02-11T11:43:07.553Z,47.15
2023-02-11T11:48:24.419Z,49.13
2023-02-11T11:53:36.882Z,45.03
2023-02-11T11:58:42.448Z,55.03
2023-02-11T12:04:35.390Z,52.70
2023-02-11T12:09:54.001Z,44.70
2023-02-11T12:15:11.097Z,42.58
2023-02-11T12:20:26.484Z,53.17
2023-02-11T12:25:38.632Z,47.33
2023-02-11T12:31:05.255Z,44.33
2023-02-11T12:36:30.459Z,52.13
2023-02-11T12:42:10.046Z,53.05
2023-02-11T12:47:27.359Z,51.20
2023-02-11T12:52:47.824Z,52.83
2023-02-11T12:57:58.470Z,48.73
2023-02-11T13:03:08.776Z,52.47
2023-02-11T13:08:20.558Z,55.60
2023-02-11T13:13:32.027Z,45.43
2023-02-11T13:18:52.026Z,52.10
2023-02-11T13:24:05.628Z,47.33
2023-02-11T13:29:23.879Z,49.60
2023-02-11T13:34:51.688Z,43.78
2023-02-11T13:40:05.551Z,42.77
2023-02-11T13:45:33.334Z,41.03
2023-02-11T13:50:43.072Z,46.73
2023-02-11T13:55:52.915Z,42.50
2023-02-11T14:01:01.120Z,46.25
2023-02-11T14:06:32.048Z,41.80
2023-02-11T14:11:52.270Z,46.58
2023-02-11T14:17:30.988Z,49.13
2023-02-11T14:22:46.999Z,46.28
2023-02-11T14:27:57.216Z,44.67
2023-02-11T14:33:30.188Z,43.77
2023-02-11T14:38:48.209Z,43.65
2023-02-11T14:43:56.904Z,40.40
2023-02-11T14:49:07.960Z,39.40
2023-02-11T14:54:17.174Z,44.60
2023-02-11T14:59:25.978Z,45.97
2023-02-11T15:04:36.485Z,41.50
2023-02-11T15:09:45.748Z,43.67
2023-02-11T15:14:53.229Z,47.78
2023-02-11T15:20:04.647Z,39.35
2023-02-11T15:25:15.051Z,38.33
2023-02-11T15:30:34.892Z,45.60
2023-02-11T15:35:44.533Z,42.70
2023-02-11T15:40:56.896Z,39.88
2023-02-11T15:46:04.709Z,37.00
2023-02-11T15:51:25.488Z,47.03
2023-02-11T15:56:34.539Z,42.72
2023-02-11T16:01:41.028Z,39.37
2023-02-11T16:06:51.151Z,40.88
2023-02-11T16:11:59.423Z,44.17
2023-02-11T16:17:07.700Z,48.67
2023-02-11T16:22:21.073Z,46.50
2023-02-11T16:27:30.493Z,43.20
2023-02-11T16:32:36.059Z,46.13
2023-02-11T16:37:43.960Z,45.90
2023-02-11T16:42:49.376Z,45.87
2023-02-11T16:47:54.751Z,45.15
2023-02-11T16:53:06.268Z,43.20
2023-02-11T16:58:11.751Z,49.95
2023-02-11T17:03:21.201Z,44.80
2023-02-11T17:08:30.060Z,45.97
2023-02-11T17:13:36.625Z,47.97
2023-02-11T17:18:41.997Z,49.10
2023-02-11T17:23:50.114Z,45.03
2023-02-11T17:28:55.560Z,52.58
2023-02-11T17:34:02.898Z,47.33
2023-02-11T17:39:11.652Z,50.05
2023-02-11T17:44:17.336Z,43.83
2023-02-11T17:49:22.963Z,49.75
2023-02-11T17:54:31.393Z,49.03
2023-02-11T17:59:37.972Z,46.77
2023-02-11T18:04:43.464Z,45.95
2023-02-11T18:09:51.844Z,50.87
2023-02-11T18:14:58.322Z,50.58
2023-02-11T18:20:04.227Z,51.22
2023-02-11T18:25:14.657Z,53.90
2023-02-11T18:30:22.335Z,45.58
2023-02-11T18:35:28.168Z,48.57
2023-02-11T18:40:36.331Z,53.08
2023-02-11T18:45:46.082Z,49.15
2023-02-11T18:50:51.620Z,55.00
2023-02-11T18:55:59.477Z,55.53
2023-02-11T19:01:05.339Z,49.40
2023-02-11T19:06:16.082Z,53.78
2023-02-11T19:11:44.208Z,54.63
2023-02-11T19:16:50.675Z,52.80
2023-02-11T19:21:56.349Z,48.92
2023-02-11T19:27:06.477Z,55.33
2023-02-11T19:32:13.303Z,53.05
2023-02-11T19:37:18.844Z,49.72
2023-02-11T19:42:27.772Z,53.13
2023-02-11T19:47:33.176Z,51.75
2023-02-11T19:52:40.493Z,54.70
2023-02-11T19:57:48.464Z,55.42
2023-02-11T20:02:53.943Z,53.97
2023-02-11T20:07:59.653Z,53.37
2023-02-11T20:13:07.853Z,58.72
2023-02-11T20:18:13.206Z,52.90
2023-02-11T20:23:20.602Z,57.28
2023-02-11T20:28:28.576Z,47.15
2023-02-11T20:33:34.961Z,49.00
2023-02-11T20:38:40.421Z,48.72
2023-02-11T20:43:51.999Z,54.00
2023-02-11T20:48:59.260Z,52.03
2023-02-11T20:54:06.464Z,50.17
2023-02-11T20:59:16.720Z,50.57
2023-02-11T21:04:24.765Z,55.92
2023-02-11T21:09:35.296Z,52.33
2023-02-11T21:14:43.331Z,50.25
2023-02-11T21:19:48.793Z,44.30
2023-02-11T21:24:54.172Z,46.23
2023-02-11T21:30:02.987Z,52.85
2023-02-11T21:35:09.800Z,54.40
2023-02-11T21:40:15.658Z,57.40
2023-02-11T21:45:24.148Z,55.00
2023-02-11T21:50:29.610Z,52.83
2023-02-11T21:55:35.165Z,52.30
2023-02-11T22:00:43.810Z,53.23
2023-02-11T22:05:49.240Z,49.05
2023-02-11T22:10:55.085Z,51.17
2023-02-11T22:16:05.826Z,54.30
2023-02-11T22:21:13.059Z,49.97
2023-02-11T22:26:20.429Z,47.13
2023-02-11T22:31:34.662Z,55.73
2023-02-11T22:36:41.772Z,48.25
2023-02-11T22:41:48.459Z,48.27
2023-02-11T22:46:57.070Z,50.15
2023-02-11T22:52:02.445Z,51.20
2023-02-11T22:57:07.911Z,51.70
2023-02-11T23:02:16.149Z,48.88
2023-02-11T23:07:21.603Z,47.23
2023-02-11T23:12:27.220Z,55.70
2023-02-11T23:17:35.192Z,43.50
2023-02-11T23:22:40.449Z,46.77
2023-02-11T23:27:45.760Z,49.28
2023-02-11T23:32:54.562Z,46.83
2023-02-11T23:38:00.043Z,48.35
2023-02-11T23:43:05.757Z,44.50
2023-02-11T23:48:13.835Z,46.47
2023-02-11T23:53:19.480Z,41.78
2023-02-11T23:58:24.933Z,41.60
